sensor_id;sensor_type;location;lat;lon;timestamp;temperature;humidity
15384;DHT22;7790;53.022;12.968;2024-03-07T00:02:54;22.30;40.20
15384;DHT22;7790;53.022;12.968;2024-03-07T00:07:15;22.30;40.20
15384;DHT22;7790;53.022;12.968;2024-03-07T00:11:16;22.40;40.20
15384;DHT22;7790;53.022;12.968;2024-03-07T00:15:18;22.40;40.20
15384;DHT22;7790;53.022;12.968;2024-03-07T00:19:18;22.40;40.20
15384;DHT22;7790;53.022;12.968;2024-03-07T00:23:19;22.40;40.20
15384;DHT22;7790;53.022;12.968;2024-03-07T00:27:20;22.40;40.20
15384;DHT22;7790;53.022;12.968;2024-03-07T00:31:21;22.40;40.20
15384;DHT22;7790;53.022;12.968;2024-03-07T00:35:22;22.40;40.20
15384;DHT22;7790;53.022;12.968;2024-03-07T00:39:23;22.30;40.20
15384;DHT22;7790;53.022;12.968;2024-03-07T00:43:24;22.30;40.20
15384;DHT22;7790;53.022;12.968;2024-03-07T00:47:25;22.30;40.20
15384;DHT22;7790;53.022;12.968;2024-03-07T00:51:26;22.30;40.10
15384;DHT22;7790;53.022;12.968;2024-03-07T00:55:27;22.30;40.10
15384;DHT22;7790;53.022;12.968;2024-03-07T00:59:28;22.40;40.20
15384;DHT22;7790;53.022;12.968;2024-03-07T01:03:29;22.40;40.20
15384;DHT22;7790;53.022;12.968;2024-03-07T01:07:29;22.30;40.10
15384;DHT22;7790;53.022;12.968;2024-03-07T01:11:32;22.40;40.20
15384;DHT22;7790;53.022;12.968;2024-03-07T01:15:34;22.40;40.10
15384;DHT22;7790;53.022;12.968;2024-03-07T01:19:35;22.40;40.10
15384;DHT22;7790;53.022;12.968;2024-03-07T01:23:36;22.40;40.10
15384;DHT22;7790;53.022;12.968;2024-03-07T01:27:36;22.40;40.10
15384;DHT22;7790;53.022;12.968;2024-03-07T01:31:37;22.40;40.00
15384;DHT22;7790;53.022;12.968;2024-03-07T01:35:38;22.40;40.00
15384;DHT22;7790;53.022;12.968;2024-03-07T01:39:39;22.40;40.00
15384;DHT22;7790;53.022;12.968;2024-03-07T01:43:41;22.40;40.00
15384;DHT22;7790;53.022;12.968;2024-03-07T01:47:42;22.40;40.10
15384;DHT22;7790;53.022;12.968;2024-03-07T01:51:43;22.40;40.00
15384;DHT22;7790;53.022;12.968;2024-03-07T01:55:44;22.40;40.10
15384;DHT22;7790;53.022;12.968;2024-03-07T01:59:45;22.40;40.00
15384;DHT22;7790;53.022;12.968;2024-03-07T02:03:47;22.40;40.10
15384;DHT22;7790;53.022;12.968;2024-03-07T02:07:48;22.40;40.10
15384;DHT22;7790;53.022;12.968;2024-03-07T02:11:48;22.40;40.10
15384;DHT22;7790;53.022;12.968;2024-03-07T02:15:50;22.40;40.10
15384;DHT22;7790;53.022;12.968;2024-03-07T02:19:51;22.40;40.00
15384;DHT22;7790;53.022;12.968;2024-03-07T02:23:52;22.40;40.00
15384;DHT22;7790;53.022;12.968;2024-03-07T02:27:53;22.40;40.00
15384;DHT22;7790;53.022;12.968;2024-03-07T02:31:54;22.50;40.00
15384;DHT22;7790;53.022;12.968;2024-03-07T02:35:55;22.50;39.80
15384;DHT22;7790;53.022;12.968;2024-03-07T02:39:55;22.60;39.80
15384;DHT22;7790;53.022;12.968;2024-03-07T02:43:56;22.70;40.10
15384;DHT22;7790;53.022;12.968;2024-03-07T02:47:57;22.80;39.60
15384;DHT22;7790;53.022;12.968;2024-03-07T02:51:58;22.70;39.70
15384;DHT22;7790;53.022;12.968;2024-03-07T02:55:59;22.70;39.90
15384;DHT22;7790;53.022;12.968;2024-03-07T02:59:59;22.50;40.00
15384;DHT22;7790;53.022;12.968;2024-03-07T03:04:01;22.50;40.10
15384;DHT22;7790;53.022;12.968;2024-03-07T03:08:02;22.40;40.20
15384;DHT22;7790;53.022;12.968;2024-03-07T03:12:02;22.30;40.20
15384;DHT22;7790;53.022;12.968;2024-03-07T03:16:03;22.20;40.40
15384;DHT22;7790;53.022;12.968;2024-03-07T03:20:08;22.10;40.60
15384;DHT22;7790;53.022;12.968;2024-03-07T03:24:15;22.10;40.50
15384;DHT22;7790;53.022;12.968;2024-03-07T03:28:17;22.10;40.50
15384;DHT22;7790;53.022;12.968;2024-03-07T03:32:19;21.90;40.60
15384;DHT22;7790;53.022;12.968;2024-03-07T03:36:20;21.90;40.50
15384;DHT22;7790;53.022;12.968;2024-03-07T03:40:21;21.90;40.60
15384;DHT22;7790;53.022;12.968;2024-03-07T03:44:22;21.90;40.60
15384;DHT22;7790;53.022;12.968;2024-03-07T03:48:22;22.00;40.50
15384;DHT22;7790;53.022;12.968;2024-03-07T03:52:23;22.10;40.30
15384;DHT22;7790;53.022;12.968;2024-03-07T03:56:24;22.20;40.00
15384;DHT22;7790;53.022;12.968;2024-03-07T04:00:25;22.40;39.90
15384;DHT22;7790;53.022;12.968;2024-03-07T04:04:26;22.40;39.80
15384;DHT22;7790;53.022;12.968;2024-03-07T04:08:27;22.50;39.80
15384;DHT22;7790;53.022;12.968;2024-03-07T04:12:28;22.50;39.70
15384;DHT22;7790;53.022;12.968;2024-03-07T04:16:29;22.80;39.90
15384;DHT22;7790;53.022;12.968;2024-03-07T04:20:30;23.30;39.30
15384;DHT22;7790;53.022;12.968;2024-03-07T04:24:31;23.50;39.00
15384;DHT22;7790;53.022;12.968;2024-03-07T04:28:35;23.60;38.90
15384;DHT22;7790;53.022;12.968;2024-03-07T04:32:39;23.70;38.90
15384;DHT22;7790;53.022;12.968;2024-03-07T04:36:42;23.80;38.90
15384;DHT22;7790;53.022;12.968;2024-03-07T04:40:43;23.80;38.80
15384;DHT22;7790;53.022;12.968;2024-03-07T04:44:44;23.90;38.70
15384;DHT22;7790;53.022;12.968;2024-03-07T04:48:45;23.90;39.30
15384;DHT22;7790;53.022;12.968;2024-03-07T04:52:46;23.90;38.80
15384;DHT22;7790;53.022;12.968;2024-03-07T04:56:48;23.90;38.80
15384;DHT22;7790;53.022;12.968;2024-03-07T05:00:49;23.90;38.80
15384;DHT22;7790;53.022;12.968;2024-03-07T05:04:50;23.90;38.70
15384;DHT22;7790;53.022;12.968;2024-03-07T05:08:51;24.00;38.70
15384;DHT22;7790;53.022;12.968;2024-03-07T05:12:51;24.00;38.50
15384;DHT22;7790;53.022;12.968;2024-03-07T05:16:52;24.10;38.30
15384;DHT22;7790;53.022;12.968;2024-03-07T05:21:05;24.10;38.30
15384;DHT22;7790;53.022;12.968;2024-03-07T05:25:26;24.00;38.30
15384;DHT22;7790;53.022;12.968;2024-03-07T05:29:27;23.40;39.30
15384;DHT22;7790;53.022;12.968;2024-03-07T05:33:27;22.80;40.00
15384;DHT22;7790;53.022;12.968;2024-03-07T05:37:28;22.60;40.20
15384;DHT22;7790;53.022;12.968;2024-03-07T05:41:29;22.50;40.60
15384;DHT22;7790;53.022;12.968;2024-03-07T05:45:30;22.60;40.50
15384;DHT22;7790;53.022;12.968;2024-03-07T05:49:31;22.70;41.60
15384;DHT22;7790;53.022;12.968;2024-03-07T05:53:31;22.70;41.70
15384;DHT22;7790;53.022;12.968;2024-03-07T05:57:32;22.70;41.40
15384;DHT22;7790;53.022;12.968;2024-03-07T06:01:33;22.70;40.90
15384;DHT22;7790;53.022;12.968;2024-03-07T06:05:35;22.60;40.90
15384;DHT22;7790;53.022;12.968;2024-03-07T06:09:36;22.60;41.00
15384;DHT22;7790;53.022;12.968;2024-03-07T06:13:37;22.40;40.90
15384;DHT22;7790;53.022;12.968;2024-03-07T06:17:37;22.40;41.00
15384;DHT22;7790;53.022;12.968;2024-03-07T06:21:40;22.30;41.00
15384;DHT22;7790;53.022;12.968;2024-03-07T06:25:41;22.30;40.90
15384;DHT22;7790;53.022;12.968;2024-03-07T06:29:48;22.30;40.70
15384;DHT22;7790;53.022;12.968;2024-03-07T06:33:51;22.40;40.70
15384;DHT22;7790;53.022;12.968;2024-03-07T06:37:52;22.40;40.60
15384;DHT22;7790;53.022;12.968;2024-03-07T06:41:53;22.40;40.50
15384;DHT22;7790;53.022;12.968;2024-03-07T06:45:55;22.40;40.50
15384;DHT22;7790;53.022;12.968;2024-03-07T06:49:56;22.40;40.40
15384;DHT22;7790;53.022;12.968;2024-03-07T06:53:57;22.40;40.40
15384;DHT22;7790;53.022;12.968;2024-03-07T06:57:57;22.40;40.40
15384;DHT22;7790;53.022;12.968;2024-03-07T07:01:58;22.40;40.30
15384;DHT22;7790;53.022;12.968;2024-03-07T07:05:59;22.50;40.30
15384;DHT22;7790;53.022;12.968;2024-03-07T07:10:01;22.50;40.30
15384;DHT22;7790;53.022;12.968;2024-03-07T07:14:02;22.40;40.30
15384;DHT22;7790;53.022;12.968;2024-03-07T07:18:04;22.40;40.20
15384;DHT22;7790;53.022;12.968;2024-03-07T07:22:04;22.50;40.30
15384;DHT22;7790;53.022;12.968;2024-03-07T07:26:06;22.50;40.20
15384;DHT22;7790;53.022;12.968;2024-03-07T07:30:08;22.50;40.20
15384;DHT22;7790;53.022;12.968;2024-03-07T07:34:13;22.70;40.00
15384;DHT22;7790;53.022;12.968;2024-03-07T07:38:14;22.50;40.20
15384;DHT22;7790;53.022;12.968;2024-03-07T07:42:15;22.50;40.30
15384;DHT22;7790;53.022;12.968;2024-03-07T07:46:17;22.70;40.10
15384;DHT22;7790;53.022;12.968;2024-03-07T07:50:19;22.60;40.40
15384;DHT22;7790;53.022;12.968;2024-03-07T07:54:20;22.60;40.40
15384;DHT22;7790;53.022;12.968;2024-03-07T07:58:21;22.60;40.40
15384;DHT22;7790;53.022;12.968;2024-03-07T08:02:23;22.60;40.30
15384;DHT22;7790;53.022;12.968;2024-03-07T08:06:24;22.60;40.40
15384;DHT22;7790;53.022;12.968;2024-03-07T08:10:26;22.70;40.30
15384;DHT22;7790;53.022;12.968;2024-03-07T08:14:29;22.60;40.30
15384;DHT22;7790;53.022;12.968;2024-03-07T08:18:30;22.60;40.80
15384;DHT22;7790;53.022;12.968;2024-03-07T08:22:31;22.70;40.30
15384;DHT22;7790;53.022;12.968;2024-03-07T08:26:32;22.70;40.40
15384;DHT22;7790;53.022;12.968;2024-03-07T08:30:33;22.70;40.30
15384;DHT22;7790;53.022;12.968;2024-03-07T08:34:35;22.80;40.40
15384;DHT22;7790;53.022;12.968;2024-03-07T08:38:36;22.80;40.20
15384;DHT22;7790;53.022;12.968;2024-03-07T08:42:38;22.80;40.30
15384;DHT22;7790;53.022;12.968;2024-03-07T08:46:39;22.80;40.30
15384;DHT22;7790;53.022;12.968;2024-03-07T08:50:40;22.80;40.30
15384;DHT22;7790;53.022;12.968;2024-03-07T08:54:41;22.80;40.40
15384;DHT22;7790;53.022;12.968;2024-03-07T08:58:42;22.70;40.50
15384;DHT22;7790;53.022;12.968;2024-03-07T09:02:44;22.70;40.60
15384;DHT22;7790;53.022;12.968;2024-03-07T09:06:44;22.60;40.70
15384;DHT22;7790;53.022;12.968;2024-03-07T09:10:47;22.50;40.70
15384;DHT22;7790;53.022;12.968;2024-03-07T09:14:48;22.50;40.70
15384;DHT22;7790;53.022;12.968;2024-03-07T09:18:49;22.50;40.80
15384;DHT22;7790;53.022;12.968;2024-03-07T09:22:49;22.50;40.80
15384;DHT22;7790;53.022;12.968;2024-03-07T09:26:52;22.40;40.90
15384;DHT22;7790;53.022;12.968;2024-03-07T09:30:53;22.40;40.90
15384;DHT22;7790;53.022;12.968;2024-03-07T09:34:53;22.40;40.90
15384;DHT22;7790;53.022;12.968;2024-03-07T09:38:55;22.50;41.00
15384;DHT22;7790;53.022;12.968;2024-03-07T09:43:00;22.60;41.00
15384;DHT22;7790;53.022;12.968;2024-03-07T09:47:02;22.70;41.00
15384;DHT22;7790;53.022;12.968;2024-03-07T09:51:05;22.70;40.80
15384;DHT22;7790;53.022;12.968;2024-03-07T09:55:07;22.80;40.80
15384;DHT22;7790;53.022;12.968;2024-03-07T09:59:12;22.90;40.70
15384;DHT22;7790;53.022;12.968;2024-03-07T10:03:17;23.00;40.70
15384;DHT22;7790;53.022;12.968;2024-03-07T10:07:21;23.00;40.60
15384;DHT22;7790;53.022;12.968;2024-03-07T10:11:22;23.10;40.60
15384;DHT22;7790;53.022;12.968;2024-03-07T10:15:29;23.10;40.60
15384;DHT22;7790;53.022;12.968;2024-03-07T10:19:30;23.10;40.70
15384;DHT22;7790;53.022;12.968;2024-03-07T10:23:31;23.10;40.80
15384;DHT22;7790;53.022;12.968;2024-03-07T10:27:37;23.00;40.90
15384;DHT22;7790;53.022;12.968;2024-03-07T10:31:38;23.00;41.00
15384;DHT22;7790;53.022;12.968;2024-03-07T10:35:39;22.90;41.20
15384;DHT22;7790;53.022;12.968;2024-03-07T10:39:40;22.90;41.20
15384;DHT22;7790;53.022;12.968;2024-03-07T10:43:43;22.80;41.10
15384;DHT22;7790;53.022;12.968;2024-03-07T10:47:53;22.70;41.40
15384;DHT22;7790;53.022;12.968;2024-03-07T10:52:27;22.70;41.50
15384;DHT22;7790;53.022;12.968;2024-03-07T11:00:45;22.50;41.50
15384;DHT22;7790;53.022;12.968;2024-03-07T11:04:48;22.50;41.30
15384;DHT22;7790;53.022;12.968;2024-03-07T11:08:50;22.60;41.40
15384;DHT22;7790;53.022;12.968;2024-03-07T11:12:52;22.60;41.30
15384;DHT22;7790;53.022;12.968;2024-03-07T11:16:54;22.70;41.30
15384;DHT22;7790;53.022;12.968;2024-03-07T11:20:55;22.70;41.20
15384;DHT22;7790;53.022;12.968;2024-03-07T11:25:02;22.70;41.10
15384;DHT22;7790;53.022;12.968;2024-03-07T11:34:13;22.80;41.10
15384;DHT22;7790;53.022;12.968;2024-03-07T11:38:20;22.80;41.10
15384;DHT22;7790;53.022;12.968;2024-03-07T11:42:30;22.90;41.10
15384;DHT22;7790;53.022;12.968;2024-03-07T11:46:33;22.80;41.10
15384;DHT22;7790;53.022;12.968;2024-03-07T11:50:39;22.80;41.10
15384;DHT22;7790;53.022;12.968;2024-03-07T11:54:41;22.70;41.10
15384;DHT22;7790;53.022;12.968;2024-03-07T11:58:46;22.60;41.20
15384;DHT22;7790;53.022;12.968;2024-03-07T12:02:54;22.60;40.70
15384;DHT22;7790;53.022;12.968;2024-03-07T12:06:55;22.40;40.50
15384;DHT22;7790;53.022;12.968;2024-03-07T12:10:56;22.30;40.50
15384;DHT22;7790;53.022;12.968;2024-03-07T12:14:57;22.50;40.80
15384;DHT22;7790;53.022;12.968;2024-03-07T12:18:57;22.50;40.30
15384;DHT22;7790;53.022;12.968;2024-03-07T12:23:02;22.50;40.40
15384;DHT22;7790;53.022;12.968;2024-03-07T12:27:10;22.50;40.60
15384;DHT22;7790;53.022;12.968;2024-03-07T12:31:11;22.50;40.60
15384;DHT22;7790;53.022;12.968;2024-03-07T12:35:16;22.50;40.50
15384;DHT22;7790;53.022;12.968;2024-03-07T12:39:23;22.50;40.50
15384;DHT22;7790;53.022;12.968;2024-03-07T12:43:31;22.50;40.50
15384;DHT22;7790;53.022;12.968;2024-03-07T12:47:32;22.60;40.60
15384;DHT22;7790;53.022;12.968;2024-03-07T12:51:33;22.60;40.50
15384;DHT22;7790;53.022;12.968;2024-03-07T12:55:40;22.60;40.60
15384;DHT22;7790;53.022;12.968;2024-03-07T12:59:44;22.70;40.60
15384;DHT22;7790;53.022;12.968;2024-03-07T13:03:46;22.70;40.60
15384;DHT22;7790;53.022;12.968;2024-03-07T13:07:48;22.60;40.70
15384;DHT22;7790;53.022;12.968;2024-03-07T13:11:49;22.60;40.70
15384;DHT22;7790;53.022;12.968;2024-03-07T13:15:50;22.50;40.60
15384;DHT22;7790;53.022;12.968;2024-03-07T13:19:55;22.40;40.80
15384;DHT22;7790;53.022;12.968;2024-03-07T13:24:01;22.30;40.90
15384;DHT22;7790;53.022;12.968;2024-03-07T13:28:11;22.30;40.90
15384;DHT22;7790;53.022;12.968;2024-03-07T13:32:24;22.30;40.90
15384;DHT22;7790;53.022;12.968;2024-03-07T13:36:29;22.20;40.90
15384;DHT22;7790;53.022;12.968;2024-03-07T13:40:30;22.10;40.90
15384;DHT22;7790;53.022;12.968;2024-03-07T13:44:31;22.00;41.00
15384;DHT22;7790;53.022;12.968;2024-03-07T13:48:32;22.10;40.90
15384;DHT22;7790;53.022;12.968;2024-03-07T13:52:37;22.10;41.30
15384;DHT22;7790;53.022;12.968;2024-03-07T14:06:08;22.30;40.50
15384;DHT22;7790;53.022;12.968;2024-03-07T14:24:07;22.40;40.20
15384;DHT22;7790;53.022;12.968;2024-03-07T14:32:37;22.40;40.20
15384;DHT22;7790;53.022;12.968;2024-03-07T14:36:49;22.50;40.20
15384;DHT22;7790;53.022;12.968;2024-03-07T14:40:53;22.50;40.20
15384;DHT22;7790;53.022;12.968;2024-03-07T14:44:54;22.50;40.20
15384;DHT22;7790;53.022;12.968;2024-03-07T14:48:55;22.50;40.20
15384;DHT22;7790;53.022;12.968;2024-03-07T14:52:56;22.50;40.10
15384;DHT22;7790;53.022;12.968;2024-03-07T14:56:57;22.50;40.10
15384;DHT22;7790;53.022;12.968;2024-03-07T15:00:58;22.60;40.10
15384;DHT22;7790;53.022;12.968;2024-03-07T15:04:59;22.60;40.10
15384;DHT22;7790;53.022;12.968;2024-03-07T15:09:10;22.60;40.10
15384;DHT22;7790;53.022;12.968;2024-03-07T15:13:11;22.60;40.10
15384;DHT22;7790;53.022;12.968;2024-03-07T15:17:13;22.60;40.10
15384;DHT22;7790;53.022;12.968;2024-03-07T15:21:14;22.60;40.00
15384;DHT22;7790;53.022;12.968;2024-03-07T15:25:16;22.60;40.10
15384;DHT22;7790;53.022;12.968;2024-03-07T15:29:18;22.50;40.10
15384;DHT22;7790;53.022;12.968;2024-03-07T15:33:22;22.50;40.20
15384;DHT22;7790;53.022;12.968;2024-03-07T15:37:23;22.40;40.30
15384;DHT22;7790;53.022;12.968;2024-03-07T15:41:24;22.30;40.40
15384;DHT22;7790;53.022;12.968;2024-03-07T15:45:25;22.30;40.50
15384;DHT22;7790;53.022;12.968;2024-03-07T15:49:26;22.30;40.50
15384;DHT22;7790;53.022;12.968;2024-03-07T15:53:27;22.20;40.50
15384;DHT22;7790;53.022;12.968;2024-03-07T15:57:28;22.10;40.50
15384;DHT22;7790;53.022;12.968;2024-03-07T16:01:29;22.10;41.00
15384;DHT22;7790;53.022;12.968;2024-03-07T16:05:31;22.10;40.60
15384;DHT22;7790;53.022;12.968;2024-03-07T16:09:32;22.00;40.60
15384;DHT22;7790;53.022;12.968;2024-03-07T16:13:33;22.10;40.40
15384;DHT22;7790;53.022;12.968;2024-03-07T16:17:35;22.20;40.30
15384;DHT22;7790;53.022;12.968;2024-03-07T16:21:39;22.20;40.20
15384;DHT22;7790;53.022;12.968;2024-03-07T16:25:45;22.30;40.10
15384;DHT22;7790;53.022;12.968;2024-03-07T16:29:46;22.40;40.00
15384;DHT22;7790;53.022;12.968;2024-03-07T16:33:49;22.40;40.00
15384;DHT22;7790;53.022;12.968;2024-03-07T16:37:50;22.40;39.90
15384;DHT22;7790;53.022;12.968;2024-03-07T16:41:55;22.40;39.90
15384;DHT22;7790;53.022;12.968;2024-03-07T16:45:56;22.40;39.90
15384;DHT22;7790;53.022;12.968;2024-03-07T16:49:57;22.40;39.90
15384;DHT22;7790;53.022;12.968;2024-03-07T16:53:57;22.50;39.90
15384;DHT22;7790;53.022;12.968;2024-03-07T16:57:58;22.50;39.90
15384;DHT22;7790;53.022;12.968;2024-03-07T17:02:00;22.50;40.30
15384;DHT22;7790;53.022;12.968;2024-03-07T17:06:02;22.30;38.90
15384;DHT22;7790;53.022;12.968;2024-03-07T17:10:05;22.70;39.00
15384;DHT22;7790;53.022;12.968;2024-03-07T17:14:07;22.70;39.00
15384;DHT22;7790;53.022;12.968;2024-03-07T17:18:10;23.00;39.10
15384;DHT22;7790;53.022;12.968;2024-03-07T17:22:11;22.80;38.70
15384;DHT22;7790;53.022;12.968;2024-03-07T17:26:12;22.80;39.00
15384;DHT22;7790;53.022;12.968;2024-03-07T17:30:20;22.80;39.10
15384;DHT22;7790;53.022;12.968;2024-03-07T17:34:21;22.90;39.10
15384;DHT22;7790;53.022;12.968;2024-03-07T17:38:25;22.90;39.20
15384;DHT22;7790;53.022;12.968;2024-03-07T17:42:27;22.90;39.30
15384;DHT22;7790;53.022;12.968;2024-03-07T17:46:29;23.00;39.30
15384;DHT22;7790;53.022;12.968;2024-03-07T17:50:31;22.90;39.10
15384;DHT22;7790;53.022;12.968;2024-03-07T17:54:32;23.00;39.90
15384;DHT22;7790;53.022;12.968;2024-03-07T17:58:33;23.00;39.30
15384;DHT22;7790;53.022;12.968;2024-03-07T18:02:35;22.90;39.50
15384;DHT22;7790;53.022;12.968;2024-03-07T18:06:36;22.90;39.70
15384;DHT22;7790;53.022;12.968;2024-03-07T18:10:37;23.00;39.80
15384;DHT22;7790;53.022;12.968;2024-03-07T18:14:38;22.90;40.10
15384;DHT22;7790;53.022;12.968;2024-03-07T18:18:39;22.80;40.30
15384;DHT22;7790;53.022;12.968;2024-03-07T18:22:42;22.70;40.50
15384;DHT22;7790;53.022;12.968;2024-03-07T18:26:43;22.70;40.50
15384;DHT22;7790;53.022;12.968;2024-03-07T18:30:48;22.70;40.50
15384;DHT22;7790;53.022;12.968;2024-03-07T18:34:51;22.70;40.50
15384;DHT22;7790;53.022;12.968;2024-03-07T18:38:51;22.70;40.40
15384;DHT22;7790;53.022;12.968;2024-03-07T18:42:53;22.70;40.40
15384;DHT22;7790;53.022;12.968;2024-03-07T18:46:54;22.80;40.40
15384;DHT22;7790;53.022;12.968;2024-03-07T18:50:55;22.80;40.40
15384;DHT22;7790;53.022;12.968;2024-03-07T18:54:56;22.80;40.40
15384;DHT22;7790;53.022;12.968;2024-03-07T18:58:57;22.80;40.40
15384;DHT22;7790;53.022;12.968;2024-03-07T19:03:11;22.80;40.30
15384;DHT22;7790;53.022;12.968;2024-03-07T19:07:15;22.80;40.80
15384;DHT22;7790;53.022;12.968;2024-03-07T19:11:17;22.90;40.30
15384;DHT22;7790;53.022;12.968;2024-03-07T19:15:18;22.90;40.10
15384;DHT22;7790;53.022;12.968;2024-03-07T19:19:21;22.90;40.10
15384;DHT22;7790;53.022;12.968;2024-03-07T19:23:24;22.90;40.00
15384;DHT22;7790;53.022;12.968;2024-03-07T19:27:24;22.90;40.00
15384;DHT22;7790;53.022;12.968;2024-03-07T19:31:25;22.90;40.00
15384;DHT22;7790;53.022;12.968;2024-03-07T19:35:26;23.00;40.00
15384;DHT22;7790;53.022;12.968;2024-03-07T19:39:27;23.00;39.80
15384;DHT22;7790;53.022;12.968;2024-03-07T19:43:28;23.00;39.80
15384;DHT22;7790;53.022;12.968;2024-03-07T19:47:30;23.10;39.80
15384;DHT22;7790;53.022;12.968;2024-03-07T19:51:32;23.00;39.70
15384;DHT22;7790;53.022;12.968;2024-03-07T19:55:36;23.00;39.80
15384;DHT22;7790;53.022;12.968;2024-03-07T19:59:38;23.10;39.90
15384;DHT22;7790;53.022;12.968;2024-03-07T20:03:39;23.10;39.90
15384;DHT22;7790;53.022;12.968;2024-03-07T20:07:40;23.10;39.90
15384;DHT22;7790;53.022;12.968;2024-03-07T20:11:41;23.10;40.00
15384;DHT22;7790;53.022;12.968;2024-03-07T20:15:42;23.00;40.00
15384;DHT22;7790;53.022;12.968;2024-03-07T20:19:45;23.10;40.20
15384;DHT22;7790;53.022;12.968;2024-03-07T20:23:46;23.10;40.10
15384;DHT22;7790;53.022;12.968;2024-03-07T20:27:51;23.10;40.20
15384;DHT22;7790;53.022;12.968;2024-03-07T20:31:56;23.00;40.20
15384;DHT22;7790;53.022;12.968;2024-03-07T20:35:58;22.80;40.30
15384;DHT22;7790;53.022;12.968;2024-03-07T20:40:03;22.80;40.30
15384;DHT22;7790;53.022;12.968;2024-03-07T20:44:08;22.80;40.40
15384;DHT22;7790;53.022;12.968;2024-03-07T20:48:10;22.80;40.30
15384;DHT22;7790;53.022;12.968;2024-03-07T20:52:11;22.80;40.30
15384;DHT22;7790;53.022;12.968;2024-03-07T20:56:13;22.80;40.20
15384;DHT22;7790;53.022;12.968;2024-03-07T21:00:19;22.80;40.10
15384;DHT22;7790;53.022;12.968;2024-03-07T21:04:24;22.80;40.00
15384;DHT22;7790;53.022;12.968;2024-03-07T21:08:24;22.90;39.90
15384;DHT22;7790;53.022;12.968;2024-03-07T21:12:26;22.90;39.80
15384;DHT22;7790;53.022;12.968;2024-03-07T21:16:27;23.00;39.70
15384;DHT22;7790;53.022;12.968;2024-03-07T21:20:28;23.00;39.70
15384;DHT22;7790;53.022;12.968;2024-03-07T21:24:29;23.00;39.50
15384;DHT22;7790;53.022;12.968;2024-03-07T21:28:31;23.00;39.50
15384;DHT22;7790;53.022;12.968;2024-03-07T21:32:33;23.00;39.90
15384;DHT22;7790;53.022;12.968;2024-03-07T21:36:33;23.00;39.40
15384;DHT22;7790;53.022;12.968;2024-03-07T21:40:35;23.00;39.30
15384;DHT22;7790;53.022;12.968;2024-03-07T21:44:37;23.00;39.30
15384;DHT22;7790;53.022;12.968;2024-03-07T21:48:38;22.90;39.40
15384;DHT22;7790;53.022;12.968;2024-03-07T21:52:43;22.90;39.50
15384;DHT22;7790;53.022;12.968;2024-03-07T21:56:46;22.80;39.60
15384;DHT22;7790;53.022;12.968;2024-03-07T22:00:47;22.70;39.60
15384;DHT22;7790;53.022;12.968;2024-03-07T22:04:48;22.70;39.60
15384;DHT22;7790;53.022;12.968;2024-03-07T22:08:51;22.90;39.50
15384;DHT22;7790;53.022;12.968;2024-03-07T22:12:52;22.70;39.60
15384;DHT22;7790;53.022;12.968;2024-03-07T22:16:54;22.70;39.60
15384;DHT22;7790;53.022;12.968;2024-03-07T22:20:56;22.70;39.60
15384;DHT22;7790;53.022;12.968;2024-03-07T22:25:00;22.70;39.50
15384;DHT22;7790;53.022;12.968;2024-03-07T22:29:01;22.70;39.40
15384;DHT22;7790;53.022;12.968;2024-03-07T22:33:04;22.70;39.40
15384;DHT22;7790;53.022;12.968;2024-03-07T22:37:07;22.70;39.40
15384;DHT22;7790;53.022;12.968;2024-03-07T22:41:09;22.70;39.40
15384;DHT22;7790;53.022;12.968;2024-03-07T22:45:10;22.80;39.30
15384;DHT22;7790;53.022;12.968;2024-03-07T22:49:11;22.70;39.20
15384;DHT22;7790;53.022;12.968;2024-03-07T22:53:12;22.80;39.10
15384;DHT22;7790;53.022;12.968;2024-03-07T22:57:13;22.80;39.10
15384;DHT22;7790;53.022;12.968;2024-03-07T23:01:14;22.80;39.10
15384;DHT22;7790;53.022;12.968;2024-03-07T23:05:15;22.80;39.10
15384;DHT22;7790;53.022;12.968;2024-03-07T23:09:17;22.80;39.10
15384;DHT22;7790;53.022;12.968;2024-03-07T23:13:18;22.70;39.00
15384;DHT22;7790;53.022;12.968;2024-03-07T23:17:19;22.80;38.90
15384;DHT22;7790;53.022;12.968;2024-03-07T23:21:20;22.80;38.90
15384;DHT22;7790;53.022;12.968;2024-03-07T23:25:23;22.80;39.00
15384;DHT22;7790;53.022;12.968;2024-03-07T23:29:24;22.80;38.90
15384;DHT22;7790;53.022;12.968;2024-03-07T23:33:25;22.80;38.90
15384;DHT22;7790;53.022;12.968;2024-03-07T23:37:26;22.80;38.90
15384;DHT22;7790;53.022;12.968;2024-03-07T23:41:26;22.80;38.90
15384;DHT22;7790;53.022;12.968;2024-03-07T23:45:27;22.80;38.80
15384;DHT22;7790;53.022;12.968;2024-03-07T23:49:28;22.80;38.90
15384;DHT22;7790;53.022;12.968;2024-03-07T23:53:29;22.80;38.90
15384;DHT22;7790;53.022;12.968;2024-03-07T23:57:30;22.70;38.90
